createdAt,value
2022-08-17T00:00:34.461Z,20.64
2022-08-17T00:01:40.902Z,20.62
2022-08-17T00:02:32.172Z,20.61
2022-08-17T00:03:32.096Z,20.64
2022-08-17T00:04:32.103Z,20.64
2022-08-17T00:05:32.085Z,20.64
2022-08-17T00:06:32.071Z,20.64
2022-08-17T00:07:32.101Z,20.61
2022-08-17T00:08:32.028Z,20.65
2022-08-17T00:09:32.317Z,20.64
2022-08-17T00:10:32.407Z,20.62
2022-08-17T00:11:32.053Z,20.64
2022-08-17T00:12:42.766Z,20.64
2022-08-17T00:13:32.013Z,20.62
2022-08-17T00:14:31.981Z,20.62
2022-08-17T00:15:31.965Z,20.61
2022-08-17T00:16:56.467Z,20.61
2022-08-17T00:17:31.978Z,20.59
2022-08-17T00:19:01.268Z,20.59
2022-08-17T00:19:31.963Z,20.56
2022-08-17T00:20:34.796Z,20.56
2022-08-17T00:22:14.761Z,20.58
2022-08-17T00:22:40.416Z,20.56
2022-08-17T00:23:31.880Z,20.54
2022-08-17T00:24:31.868Z,20.56
2022-08-17T00:25:31.887Z,20.61
2022-08-17T00:26:34.549Z,20.59
2022-08-17T00:27:31.875Z,20.61
2022-08-17T00:28:33.368Z,20.61
2022-08-17T00:29:32.086Z,20.59
2022-08-17T00:30:31.810Z,20.58
2022-08-17T00:31:31.920Z,20.58
2022-08-17T00:33:15.572Z,20.56
2022-08-17T00:33:31.840Z,20.54
2022-08-17T00:34:31.833Z,20.54
2022-08-17T00:35:31.750Z,20.53
2022-08-17T00:36:31.747Z,20.49
2022-08-17T00:37:31.791Z,20.49
2022-08-17T00:38:31.714Z,20.47
2022-08-17T00:39:31.855Z,20.47
2022-08-17T00:40:40.680Z,20.43
2022-08-17T00:41:31.678Z,20.43
2022-08-17T00:42:31.677Z,20.41
2022-08-17T00:43:31.715Z,20.42
2022-08-17T00:44:31.655Z,20.39
2022-08-17T00:45:31.633Z,20.35
2022-08-17T00:46:31.676Z,20.38
2022-08-17T00:47:31.908Z,20.38
2022-08-17T00:48:31.622Z,20.38
2022-08-17T00:49:31.637Z,20.35
2022-08-17T00:50:31.587Z,20.33
2022-08-17T00:51:31.615Z,20.33
2022-08-17T00:52:31.566Z,20.31
2022-08-17T00:53:31.570Z,20.33
2022-08-17T00:54:31.844Z,20.31
2022-08-17T00:55:31.567Z,20.28
2022-08-17T00:56:31.535Z,20.30
2022-08-17T00:57:31.516Z,20.28
2022-08-17T00:58:36.276Z,20.28
2022-08-17T00:59:31.525Z,20.27
2022-08-17T01:00:31.507Z,20.28
2022-08-17T01:01:31.866Z,20.27
2022-08-17T01:02:34.375Z,20.25
2022-08-17T01:03:31.456Z,20.25
2022-08-17T01:04:31.437Z,20.24
2022-08-17T01:05:31.440Z,20.25
2022-08-17T01:06:31.421Z,20.23
2022-08-17T01:07:31.452Z,20.23
2022-08-17T01:08:31.683Z,20.21
2022-08-17T01:09:31.384Z,20.21
2022-08-17T01:10:58.345Z,20.20
2022-08-17T01:11:31.371Z,20.20
2022-08-17T01:12:31.362Z,20.20
2022-08-17T01:13:32.813Z,20.20
2022-08-17T01:14:31.344Z,20.18
2022-08-17T01:15:31.618Z,20.16
2022-08-17T01:16:31.323Z,20.15
2022-08-17T01:17:31.354Z,20.15
2022-08-17T01:18:31.311Z,20.18
2022-08-17T01:19:31.340Z,20.16
2022-08-17T01:20:31.285Z,20.16
2022-08-17T01:21:31.262Z,20.16
2022-08-17T01:22:31.562Z,20.13
2022-08-17T01:23:31.235Z,20.16
2022-08-17T01:24:31.231Z,20.15
2022-08-17T01:25:31.245Z,20.15
2022-08-17T01:26:31.246Z,20.13
2022-08-17T01:27:31.189Z,20.12
2022-08-17T01:28:33.600Z,20.10
2022-08-17T01:29:31.184Z,20.12
2022-08-17T01:30:56.882Z,20.10
2022-08-17T01:31:31.192Z,20.10
2022-08-17T01:32:31.155Z,20.10
2022-08-17T01:33:31.151Z,20.09
2022-08-17T01:34:42.715Z,20.10
2022-08-17T01:35:31.126Z,20.10
2022-08-17T01:36:31.099Z,20.12
2022-08-17T01:37:31.131Z,20.12
2022-08-17T01:38:31.095Z,20.12
2022-08-17T01:39:31.145Z,20.13
2022-08-17T01:40:31.059Z,20.13
2022-08-17T01:41:31.314Z,20.13
2022-08-17T01:42:31.040Z,20.13
2022-08-17T01:43:31.076Z,20.15
2022-08-17T01:44:31.009Z,20.13
2022-08-17T01:45:31.042Z,20.10
2022-08-17T01:46:30.994Z,20.10
2022-08-17T01:47:31.156Z,20.10
2022-08-17T01:48:31.279Z,20.09
2022-08-17T01:49:31.005Z,20.08
2022-08-17T01:50:30.949Z,20.09
2022-08-17T01:51:30.944Z,20.08
2022-08-17T01:52:30.954Z,20.05
2022-08-17T01:53:30.923Z,20.05
2022-08-17T01:54:30.906Z,20.02
2022-08-17T01:55:31.254Z,20.02
2022-08-17T01:56:30.887Z,20.00
2022-08-17T01:57:30.883Z,19.97
2022-08-17T01:58:30.865Z,19.95
2022-08-17T01:59:30.860Z,19.94
2022-08-17T02:00:59.425Z,19.93
2022-08-17T02:01:30.938Z,19.90
2022-08-17T02:02:31.669Z,19.90
2022-08-17T02:03:30.829Z,19.88
2022-08-17T02:04:30.806Z,19.86
2022-08-17T02:05:30.818Z,19.86
2022-08-17T02:06:31.272Z,19.80
2022-08-17T02:07:30.847Z,19.80
2022-08-17T02:08:37.341Z,19.79
2022-08-17T02:09:30.767Z,19.76
2022-08-17T02:10:33.904Z,19.75
2022-08-17T02:11:30.734Z,19.73
2022-08-17T02:12:37.762Z,19.72
2022-08-17T02:13:30.762Z,19.69
2022-08-17T02:14:30.713Z,19.68
2022-08-17T02:15:30.984Z,19.65
2022-08-17T02:16:37.687Z,19.65
2022-08-17T02:17:30.691Z,19.60
2022-08-17T02:18:30.703Z,19.57
2022-08-17T02:19:30.691Z,19.57
2022-08-17T02:20:41.181Z,19.54
2022-08-17T02:21:30.646Z,19.53
2022-08-17T02:22:30.616Z,19.53
2022-08-17T02:23:30.637Z,19.47
2022-08-17T02:25:00.522Z,19.47
2022-08-17T02:25:30.625Z,19.43
2022-08-17T02:26:30.572Z,19.39
2022-08-17T02:27:30.850Z,19.38
2022-08-17T02:28:30.568Z,19.36
2022-08-17T02:29:30.547Z,19.32
2022-08-17T02:30:59.531Z,19.33
2022-08-17T02:31:30.577Z,19.32
2022-08-17T02:32:30.510Z,19.33
2022-08-17T02:33:41.598Z,19.31
2022-08-17T02:34:30.491Z,19.31
2022-08-17T02:35:30.503Z,19.28
2022-08-17T02:36:30.462Z,19.28
2022-08-17T02:37:30.516Z,19.25
2022-08-17T02:38:30.446Z,19.25
2022-08-17T02:39:30.777Z,19.25
2022-08-17T02:40:36.135Z,19.24
2022-08-17T02:41:30.437Z,19.24
2022-08-17T02:42:30.395Z,19.23
2022-08-17T02:43:30.437Z,19.20
2022-08-17T02:44:39.390Z,19.18
2022-08-17T02:45:30.390Z,19.17
2022-08-17T02:46:30.657Z,19.17
2022-08-17T02:47:30.346Z,19.17
2022-08-17T02:48:31.502Z,19.17
2022-08-17T02:49:30.427Z,19.15
2022-08-17T02:50:30.306Z,19.15
2022-08-17T02:51:30.350Z,19.14
2022-08-17T02:52:42.959Z,19.11
2022-08-17T02:53:35.530Z,19.08
2022-08-17T02:54:39.618Z,19.05
2022-08-17T02:55:30.324Z,19.05
2022-08-17T02:56:30.268Z,18.99
2022-08-17T02:57:30.266Z,19.01
2022-08-17T02:58:35.522Z,19.01
2022-08-17T02:59:30.230Z,18.99
2022-08-17T03:00:30.229Z,18.98
2022-08-17T03:01:30.288Z,18.98
2022-08-17T03:02:30.183Z,18.95
2022-08-17T03:03:30.188Z,18.91
2022-08-17T03:04:30.197Z,18.90
2022-08-17T03:05:30.504Z,18.90
2022-08-17T03:06:30.140Z,18.87
2022-08-17T03:07:30.180Z,18.84
2022-08-17T03:08:30.144Z,18.83
2022-08-17T03:09:30.127Z,18.80
2022-08-17T03:10:30.106Z,18.83
2022-08-17T03:11:30.095Z,18.80
2022-08-17T03:12:30.075Z,18.80
2022-08-17T03:13:30.206Z,18.82
2022-08-17T03:14:30.077Z,18.83
2022-08-17T03:15:30.050Z,18.84
2022-08-17T03:16:30.045Z,18.83
2022-08-17T03:17:30.309Z,18.83
2022-08-17T03:18:30.012Z,18.82
2022-08-17T03:19:30.051Z,18.80
2022-08-17T03:20:30.014Z,18.79
2022-08-17T03:21:29.986Z,18.76
2022-08-17T03:22:36.774Z,18.77
2022-08-17T03:23:30.397Z,18.76
2022-08-17T03:24:29.961Z,18.74
2022-08-17T03:25:29.973Z,18.72
2022-08-17T03:26:30.002Z,18.70
2022-08-17T03:27:29.966Z,18.72
2022-08-17T03:28:29.912Z,18.70
2022-08-17T03:29:30.207Z,18.68
2022-08-17T03:30:29.920Z,18.70
2022-08-17T03:31:29.926Z,18.72
2022-08-17T03:32:29.868Z,18.72
2022-08-17T03:33:29.879Z,18.72
2022-08-17T03:34:29.881Z,18.70
2022-08-17T03:35:29.874Z,18.72
2022-08-17T03:36:30.104Z,18.70
2022-08-17T03:37:29.870Z,18.68
2022-08-17T03:38:29.800Z,18.67
2022-08-17T03:39:29.874Z,18.65
2022-08-17T03:40:39.852Z,18.62
2022-08-17T03:41:29.786Z,18.61
2022-08-17T03:42:32.382Z,18.58
2022-08-17T03:43:30.083Z,18.55
2022-08-17T03:44:29.741Z,18.52
2022-08-17T03:45:29.738Z,18.50
2022-08-17T03:46:34.988Z,18.46
2022-08-17T03:47:29.725Z,18.47
2022-08-17T03:48:29.711Z,18.44
2022-08-17T03:49:29.719Z,18.44
2022-08-17T03:50:29.961Z,18.43
2022-08-17T03:51:29.682Z,18.43
2022-08-17T03:52:29.657Z,18.42
2022-08-17T03:53:29.713Z,18.42
2022-08-17T03:54:29.633Z,18.40
2022-08-17T03:55:36.083Z,18.40
2022-08-17T03:56:29.630Z,18.39
2022-08-17T03:57:29.896Z,18.39
2022-08-17T03:58:29.593Z,18.39
2022-08-17T03:59:29.596Z,18.42
2022-08-17T04:00:29.590Z,18.40
2022-08-17T04:01:29.661Z,18.37
2022-08-17T04:02:29.547Z,18.37
2022-08-17T04:03:29.558Z,18.37
2022-08-17T04:04:29.817Z,18.39
2022-08-17T04:05:29.520Z,18.39
2022-08-17T04:06:29.535Z,18.39
2022-08-17T04:07:29.568Z,18.36
2022-08-17T04:08:29.528Z,18.37
2022-08-17T04:09:29.507Z,18.34
2022-08-17T04:10:29.473Z,18.37
2022-08-17T04:11:29.777Z,18.36
2022-08-17T04:12:29.455Z,18.36
2022-08-17T04:13:29.481Z,18.34
2022-08-17T04:14:29.447Z,18.33
2022-08-17T04:15:29.432Z,18.34
2022-08-17T04:16:29.399Z,18.34
2022-08-17T04:17:29.426Z,18.37
2022-08-17T04:18:29.664Z,18.39
2022-08-17T04:19:29.442Z,18.42
2022-08-17T04:20:29.364Z,18.40
2022-08-17T04:21:29.381Z,18.44
2022-08-17T04:22:30.773Z,18.44
2022-08-17T04:23:29.336Z,18.44
2022-08-17T04:24:29.322Z,18.46
2022-08-17T04:25:29.624Z,18.44
2022-08-17T04:26:53.232Z,18.46
2022-08-17T04:27:29.296Z,18.50
2022-08-17T04:28:29.278Z,18.49
2022-08-17T04:29:29.284Z,18.52
2022-08-17T04:30:29.257Z,18.52
2022-08-17T04:31:29.276Z,18.54
2022-08-17T04:33:04.597Z,18.55
2022-08-17T04:33:29.252Z,18.54
2022-08-17T04:34:29.221Z,18.54
2022-08-17T04:35:29.201Z,18.54
2022-08-17T04:36:29.180Z,18.54
2022-08-17T04:37:29.216Z,18.54
2022-08-17T04:38:29.169Z,18.58
2022-08-17T04:39:29.202Z,18.62
2022-08-17T04:40:29.137Z,18.70
2022-08-17T04:41:29.142Z,18.73
2022-08-17T04:42:29.154Z,18.77
2022-08-17T04:43:29.153Z,18.80
2022-08-17T04:44:37.599Z,18.83
2022-08-17T04:45:32.213Z,18.83
2022-08-17T04:46:29.071Z,18.84
2022-08-17T04:47:29.083Z,18.84
2022-08-17T04:48:36.499Z,18.87
2022-08-17T04:49:29.087Z,18.86
2022-08-17T04:50:29.038Z,18.87
2022-08-17T04:51:29.305Z,18.91
2022-08-17T04:52:32.249Z,18.92
2022-08-17T04:53:29.012Z,18.94
2022-08-17T04:54:28.985Z,18.95
2022-08-17T04:55:29.031Z,18.95
2022-08-17T04:56:28.987Z,18.97
2022-08-17T04:57:28.977Z,18.98
2022-08-17T04:58:28.983Z,18.98
2022-08-17T04:59:28.975Z,18.99
2022-08-17T05:00:28.934Z,19.01
2022-08-17T05:01:29.022Z,18.99
2022-08-17T05:02:28.906Z,19.01
2022-08-17T05:03:29.193Z,19.02
2022-08-17T05:04:33.924Z,19.05
2022-08-17T05:05:28.896Z,19.05
2022-08-17T05:06:28.865Z,19.05
2022-08-17T05:07:31.598Z,19.08
2022-08-17T05:08:28.846Z,19.10
2022-08-17T05:09:28.831Z,19.10
2022-08-17T05:10:28.812Z,19.11
2022-08-17T05:11:28.819Z,19.13
2022-08-17T05:12:28.792Z,19.11
2022-08-17T05:13:28.822Z,19.13
2022-08-17T05:14:33.223Z,19.17
2022-08-17T05:15:28.821Z,19.15
2022-08-17T05:16:28.756Z,19.17
2022-08-17T05:17:28.756Z,19.20
2022-08-17T05:18:28.758Z,19.20
2022-08-17T05:19:28.768Z,19.24
2022-08-17T05:20:28.712Z,19.28
2022-08-17T05:21:28.997Z,19.28
2022-08-17T05:22:28.695Z,19.32
2022-08-17T05:23:35.532Z,19.33
2022-08-17T05:24:39.173Z,19.33
2022-08-17T05:25:28.726Z,19.38
2022-08-17T05:26:29.402Z,19.42
2022-08-17T05:27:29.301Z,19.43
2022-08-17T05:28:28.648Z,19.43
2022-08-17T05:29:35.567Z,19.46
2022-08-17T05:30:28.610Z,19.50
2022-08-17T05:31:28.748Z,19.50
2022-08-17T05:32:39.027Z,19.51
2022-08-17T05:33:28.585Z,19.55
2022-08-17T05:34:28.845Z,19.57
2022-08-17T05:35:28.578Z,19.60
2022-08-17T05:36:42.267Z,19.63
2022-08-17T05:37:28.585Z,19.66
2022-08-17T05:38:28.533Z,19.72
2022-08-17T05:39:28.556Z,19.73
2022-08-17T05:40:28.494Z,19.76
2022-08-17T05:41:28.766Z,19.79
2022-08-17T05:42:28.482Z,19.86
2022-08-17T05:43:28.498Z,19.86
2022-08-17T05:44:28.459Z,19.90
2022-08-17T05:45:54.916Z,19.91
2022-08-17T05:46:28.435Z,19.94
2022-08-17T05:47:28.437Z,19.94
2022-08-17T05:48:35.688Z,20.00
2022-08-17T05:49:28.440Z,20.06
2022-08-17T05:50:29.899Z,20.10
2022-08-17T05:51:28.381Z,20.12
2022-08-17T05:52:28.374Z,20.20
2022-08-17T05:53:28.353Z,20.23
2022-08-17T05:54:28.354Z,20.30
2022-08-17T05:55:28.662Z,20.33
2022-08-17T05:56:29.771Z,20.38
2022-08-17T05:57:28.313Z,20.42
2022-08-17T05:58:28.319Z,20.49
2022-08-17T05:59:28.285Z,20.51
2022-08-17T06:00:30.623Z,20.62
2022-08-17T06:01:28.365Z,20.65
2022-08-17T06:02:28.558Z,20.72
2022-08-17T06:03:28.244Z,20.83
2022-08-17T06:04:28.258Z,20.95
2022-08-17T06:05:28.245Z,21.06
2022-08-17T06:06:31.332Z,21.14
2022-08-17T06:07:28.261Z,21.14
2022-08-17T06:08:28.209Z,21.13
2022-08-17T06:09:33.420Z,21.09
2022-08-17T06:10:28.215Z,21.13
2022-08-17T06:11:28.183Z,21.16
2022-08-17T06:12:28.164Z,21.20
2022-08-17T06:13:28.169Z,21.21
2022-08-17T06:14:28.138Z,21.23
2022-08-17T06:15:28.124Z,21.27
2022-08-17T06:16:34.238Z,21.30
2022-08-17T06:17:28.159Z,21.36
2022-08-17T06:18:28.139Z,21.50
2022-08-17T06:19:28.125Z,21.63
2022-08-17T06:20:28.111Z,21.76
2022-08-17T06:21:32.104Z,21.82
2022-08-17T06:22:28.050Z,21.90
2022-08-17T06:23:28.323Z,21.97
2022-08-17T06:24:28.039Z,21.97
2022-08-17T06:25:28.095Z,21.97
2022-08-17T06:26:31.249Z,21.97
2022-08-17T06:27:28.028Z,21.99
2022-08-17T06:28:27.993Z,22.07
2022-08-17T06:29:28.625Z,22.20
2022-08-17T06:30:28.285Z,22.31
2022-08-17T06:31:27.996Z,22.46
2022-08-17T06:32:27.979Z,22.50
2022-08-17T06:33:27.940Z,22.49
2022-08-17T06:34:27.927Z,22.39
2022-08-17T06:35:31.856Z,22.41
2022-08-17T06:36:27.915Z,22.38
2022-08-17T06:37:27.964Z,22.31
2022-08-17T06:38:38.026Z,22.22
2022-08-17T06:39:27.905Z,22.20
2022-08-17T06:40:27.869Z,22.17
2022-08-17T06:41:27.850Z,22.16
2022-08-17T06:42:58.809Z,22.14
2022-08-17T06:43:27.859Z,22.13
2022-08-17T06:44:43.265Z,22.06
2022-08-17T06:45:27.810Z,22.06
2022-08-17T06:46:27.791Z,22.01
2022-08-17T06:47:28.135Z,22.04
2022-08-17T06:48:27.782Z,22.10
2022-08-17T06:49:27.826Z,22.16
2022-08-17T06:50:27.802Z,22.17
2022-08-17T06:51:27.776Z,22.23
2022-08-17T06:52:45.507Z,22.34
2022-08-17T06:53:27.731Z,22.38
2022-08-17T06:54:28.045Z,22.41
2022-08-17T06:55:27.727Z,22.50
2022-08-17T06:56:53.119Z,22.56
2022-08-17T06:57:27.705Z,22.62
2022-08-17T06:58:29.461Z,22.62
2022-08-17T06:59:35.677Z,22.65
2022-08-17T07:00:27.990Z,22.69
2022-08-17T07:01:27.714Z,22.75
2022-08-17T07:02:29.523Z,22.82
2022-08-17T07:03:27.685Z,23.04
2022-08-17T07:04:27.635Z,23.32
2022-08-17T07:05:27.615Z,23.43
2022-08-17T07:06:27.609Z,23.62
2022-08-17T07:07:27.907Z,23.67
2022-08-17T07:08:30.548Z,23.79
2022-08-17T07:09:27.563Z,23.82
2022-08-17T07:10:27.550Z,23.87
2022-08-17T07:11:27.535Z,23.94
2022-08-17T07:12:27.533Z,24.14
2022-08-17T07:13:27.560Z,24.29
2022-08-17T07:14:27.788Z,24.38
2022-08-17T07:15:27.543Z,24.45
2022-08-17T07:16:27.503Z,24.50
2022-08-17T07:17:46.955Z,24.26
2022-08-17T07:18:27.482Z,24.04
2022-08-17T07:19:27.488Z,24.02
2022-08-17T07:20:27.488Z,24.13
2022-08-17T07:21:27.729Z,24.17
2022-08-17T07:22:27.470Z,24.29
2022-08-17T07:23:27.437Z,24.39
2022-08-17T07:24:29.601Z,24.42
2022-08-17T07:25:27.463Z,24.45
2022-08-17T07:26:27.442Z,24.49
2022-08-17T07:27:27.389Z,24.63
2022-08-17T07:28:27.657Z,24.80
2022-08-17T07:29:27.356Z,24.94
2022-08-17T07:30:27.361Z,25.10
2022-08-17T07:31:27.394Z,25.31
2022-08-17T07:32:27.349Z,25.43
2022-08-17T07:33:27.332Z,25.54
2022-08-17T07:34:27.336Z,25.61
2022-08-17T07:35:37.541Z,25.75
2022-08-17T07:36:30.075Z,25.82
2022-08-17T07:37:27.358Z,25.94
2022-08-17T07:38:27.314Z,26.09
2022-08-17T07:39:27.345Z,26.21
2022-08-17T07:40:27.393Z,26.24
2022-08-17T07:41:27.250Z,26.24
2022-08-17T07:42:27.280Z,26.17
2022-08-17T07:43:29.588Z,26.04
2022-08-17T07:44:27.232Z,26.04
2022-08-17T07:45:27.215Z,26.02
2022-08-17T07:46:27.228Z,26.06
2022-08-17T07:47:27.232Z,26.02
2022-08-17T07:48:27.490Z,26.06
2022-08-17T07:49:27.228Z,26.05
2022-08-17T07:50:27.258Z,26.04
2022-08-17T07:51:27.168Z,25.98
2022-08-17T07:52:51.099Z,25.97
2022-08-17T07:53:27.287Z,25.84
2022-08-17T07:54:27.142Z,25.74
2022-08-17T07:55:27.656Z,25.71
2022-08-17T07:56:27.113Z,25.68
2022-08-17T07:57:30.040Z,25.59
2022-08-17T07:58:27.091Z,25.53
2022-08-17T07:59:27.243Z,25.47
2022-08-17T08:00:32.325Z,25.39
2022-08-17T08:01:27.153Z,25.39
2022-08-17T08:02:31.988Z,25.38
2022-08-17T08:03:27.065Z,25.37
2022-08-17T08:04:49.908Z,25.39
2022-08-17T08:05:46.713Z,25.43
2022-08-17T08:06:27.051Z,25.47
2022-08-17T08:07:27.040Z,25.47
2022-08-17T08:08:27.309Z,25.50
2022-08-17T08:09:26.985Z,25.53
2022-08-17T08:10:27.003Z,25.53
2022-08-17T08:11:26.963Z,25.52
2022-08-17T08:12:32.689Z,25.53
2022-08-17T08:13:27.017Z,25.56
2022-08-17T08:14:28.268Z,25.57
2022-08-17T08:15:26.919Z,25.61
2022-08-17T08:16:26.926Z,25.65
2022-08-17T08:17:26.910Z,25.65
2022-08-17T08:18:54.392Z,25.61
2022-08-17T08:19:26.935Z,25.62
2022-08-17T08:20:52.386Z,25.59
2022-08-17T08:21:26.879Z,25.59
2022-08-17T08:22:26.840Z,25.59
2022-08-17T08:23:26.837Z,25.61
2022-08-17T08:24:31.093Z,25.64
2022-08-17T08:25:28.692Z,25.65
2022-08-17T08:26:26.809Z,25.61
2022-08-17T08:27:26.789Z,25.67
2022-08-17T08:28:26.817Z,25.62
2022-08-17T08:29:26.764Z,25.62
2022-08-17T08:30:26.756Z,25.62
2022-08-17T08:31:26.782Z,25.62
2022-08-17T08:32:27.018Z,25.62
2022-08-17T08:33:26.740Z,25.56
2022-08-17T08:34:58.678Z,25.54
2022-08-17T08:35:26.721Z,25.49
2022-08-17T08:37:02.464Z,25.54
2022-08-17T08:37:34.562Z,25.56
2022-08-17T08:38:26.692Z,25.64
2022-08-17T08:39:26.696Z,25.68
2022-08-17T08:40:26.649Z,25.68
2022-08-17T08:41:26.654Z,25.72
2022-08-17T08:42:26.912Z,25.77
2022-08-17T08:43:26.662Z,25.77
2022-08-17T08:45:00.883Z,25.79
2022-08-17T08:45:26.620Z,25.79
2022-08-17T08:46:26.600Z,25.86
2022-08-17T08:47:26.576Z,25.93
2022-08-17T08:48:53.855Z,26.01
2022-08-17T08:49:51.922Z,26.06
2022-08-17T08:50:37.018Z,26.05
2022-08-17T08:51:26.583Z,26.06
2022-08-17T08:52:26.523Z,26.02
2022-08-17T08:53:26.531Z,26.08
2022-08-17T08:54:27.308Z,26.11
2022-08-17T08:55:26.526Z,26.22
2022-08-17T08:56:26.517Z,26.32
2022-08-17T08:57:32.809Z,26.44
2022-08-17T08:58:31.854Z,26.47
2022-08-17T08:59:26.493Z,26.57
2022-08-17T09:00:26.453Z,26.65
2022-08-17T09:01:26.864Z,26.80
2022-08-17T09:02:26.441Z,26.94
2022-08-17T09:03:43.830Z,27.01
2022-08-17T09:04:26.425Z,27.14
2022-08-17T09:05:26.403Z,27.23
2022-08-17T09:06:33.484Z,27.24
2022-08-17T09:07:26.482Z,27.41
2022-08-17T09:08:26.674Z,27.61
2022-08-17T09:09:26.356Z,27.77
2022-08-17T09:10:26.342Z,27.96
2022-08-17T09:11:26.369Z,28.09
2022-08-17T09:12:26.345Z,28.11
2022-08-17T09:13:26.373Z,28.10
2022-08-17T09:14:28.614Z,28.17
2022-08-17T09:15:26.574Z,28.23
2022-08-17T09:16:26.323Z,28.33
2022-08-17T09:17:26.256Z,28.38
2022-08-17T09:19:03.455Z,28.51
2022-08-17T09:19:26.311Z,28.54
2022-08-17T09:20:27.890Z,28.53
2022-08-17T09:21:26.270Z,28.56
2022-08-17T09:22:26.485Z,28.56
2022-08-17T09:23:26.194Z,28.63
2022-08-17T09:24:26.193Z,28.65
2022-08-17T09:25:26.203Z,28.73
2022-08-17T09:26:26.188Z,28.80
2022-08-17T09:27:26.197Z,28.84
2022-08-17T09:28:26.169Z,28.95
2022-08-17T09:29:26.467Z,29.13
2022-08-17T09:30:26.167Z,29.33
2022-08-17T09:31:31.303Z,29.43
2022-08-17T09:32:26.153Z,29.60
2022-08-17T09:33:26.122Z,29.77
2022-08-17T09:34:29.576Z,29.75
2022-08-17T09:35:36.696Z,29.60
2022-08-17T09:36:26.106Z,29.44
2022-08-17T09:37:26.112Z,29.28
2022-08-17T09:38:30.332Z,29.18
2022-08-17T09:39:26.147Z,29.07
2022-08-17T09:40:26.752Z,28.96
2022-08-17T09:41:26.012Z,28.70
2022-08-17T09:42:26.290Z,28.56
2022-08-17T09:43:26.025Z,28.47
2022-08-17T09:44:26.028Z,28.51
2022-08-17T09:45:25.986Z,28.58
2022-08-17T09:46:25.981Z,28.58
2022-08-17T09:47:25.977Z,28.62
2022-08-17T09:48:25.963Z,28.68
2022-08-17T09:49:26.312Z,28.81
2022-08-17T09:51:04.034Z,28.91
2022-08-17T09:51:25.915Z,29.04
2022-08-17T09:52:25.943Z,29.10
2022-08-17T09:53:25.918Z,29.11
2022-08-17T09:54:41.283Z,29.07
2022-08-17T09:55:25.918Z,29.04
2022-08-17T09:56:26.140Z,29.04
2022-08-17T09:57:30.241Z,28.97
2022-08-17T09:58:29.090Z,28.93
2022-08-17T09:59:25.822Z,28.90
2022-08-17T10:00:25.832Z,29.00
2022-08-17T10:01:25.909Z,29.04
2022-08-17T10:02:25.813Z,29.08
2022-08-17T10:03:26.168Z,29.10
2022-08-17T10:04:29.491Z,29.10
2022-08-17T10:05:25.775Z,29.13
2022-08-17T10:06:25.758Z,29.07
2022-08-17T10:07:25.822Z,29.15
2022-08-17T10:08:25.763Z,29.26
2022-08-17T10:09:25.796Z,29.35
2022-08-17T10:10:25.993Z,29.40
2022-08-17T10:11:33.893Z,29.50
2022-08-17T10:12:30.189Z,29.55
2022-08-17T10:13:25.729Z,29.52
2022-08-17T10:14:37.860Z,29.55
2022-08-17T10:15:25.670Z,29.60
2022-08-17T10:16:25.669Z,29.65
2022-08-17T10:17:25.643Z,29.68
2022-08-17T10:18:31.867Z,29.70
2022-08-17T10:19:25.724Z,29.66
2022-08-17T10:20:25.620Z,29.65
2022-08-17T10:21:25.611Z,29.59
2022-08-17T10:22:34.951Z,29.56
2022-08-17T10:23:25.604Z,29.55
2022-08-17T10:24:25.566Z,29.49
2022-08-17T10:25:37.632Z,29.44
2022-08-17T10:26:25.566Z,29.38
2022-08-17T10:27:25.550Z,29.25
2022-08-17T10:28:29.552Z,29.08
2022-08-17T10:29:25.823Z,29.00
2022-08-17T10:30:25.514Z,28.91
2022-08-17T10:31:41.017Z,28.87
2022-08-17T10:32:25.482Z,28.85
2022-08-17T10:33:25.480Z,28.84
2022-08-17T10:34:25.487Z,28.81
2022-08-17T10:35:25.478Z,28.80
2022-08-17T10:36:25.449Z,28.81
2022-08-17T10:37:25.479Z,28.78
2022-08-17T10:38:25.440Z,28.75
2022-08-17T10:39:25.461Z,28.69
2022-08-17T10:40:26.492Z,28.65
2022-08-17T10:41:25.668Z,28.59
2022-08-17T10:42:32.269Z,28.60
2022-08-17T10:43:25.418Z,28.62
2022-08-17T10:44:38.548Z,28.59
2022-08-17T10:45:25.353Z,28.59
2022-08-17T10:46:31.244Z,28.59
2022-08-17T10:47:25.332Z,28.59
2022-08-17T10:48:25.343Z,28.60
2022-08-17T10:49:25.353Z,28.65
2022-08-17T10:50:25.317Z,28.65
2022-08-17T10:51:25.291Z,28.69
2022-08-17T10:52:25.286Z,28.68
2022-08-17T10:53:25.589Z,28.70
2022-08-17T10:54:25.284Z,28.73
2022-08-17T10:55:25.291Z,28.73
2022-08-17T10:56:25.255Z,28.73
2022-08-17T10:57:25.762Z,28.77
2022-08-17T10:58:27.178Z,28.81
2022-08-17T10:59:25.232Z,28.78
2022-08-17T11:00:27.643Z,28.77
2022-08-17T11:01:25.279Z,28.77
2022-08-17T11:02:25.177Z,28.80
2022-08-17T11:03:25.167Z,28.82
2022-08-17T11:04:25.276Z,28.88
2022-08-17T11:05:25.165Z,28.90
2022-08-17T11:06:25.130Z,29.00
2022-08-17T11:07:25.179Z,29.01
2022-08-17T11:08:25.121Z,29.03
2022-08-17T11:09:25.129Z,29.03
2022-08-17T11:10:25.083Z,29.03
2022-08-17T11:11:25.071Z,29.03
2022-08-17T11:12:25.074Z,29.01
2022-08-17T11:13:25.549Z,29.03
2022-08-17T11:14:25.084Z,28.96
2022-08-17T11:15:25.070Z,28.95
2022-08-17T11:16:25.021Z,28.96
2022-08-17T11:17:25.054Z,28.95
2022-08-17T11:18:25.001Z,29.00
2022-08-17T11:19:25.055Z,29.00
2022-08-17T11:20:25.338Z,28.96
2022-08-17T11:21:24.989Z,28.95
2022-08-17T11:22:27.791Z,29.00
2022-08-17T11:23:24.951Z,29.03
2022-08-17T11:24:24.935Z,29.03
2022-08-17T11:25:24.976Z,29.06
2022-08-17T11:26:24.929Z,29.13
2022-08-17T11:27:25.398Z,29.15
2022-08-17T11:28:24.913Z,29.20
2022-08-17T11:29:24.972Z,29.22
2022-08-17T11:30:26.735Z,29.23
2022-08-17T11:31:38.923Z,29.28
2022-08-17T11:32:24.872Z,29.33
2022-08-17T11:33:24.856Z,29.37
2022-08-17T11:34:24.842Z,29.44
2022-08-17T11:35:24.829Z,29.47
2022-08-17T11:36:24.819Z,29.45
2022-08-17T11:37:24.839Z,29.41
2022-08-17T11:38:24.786Z,29.35
2022-08-17T11:39:24.890Z,29.29
2022-08-17T11:40:24.784Z,29.20
2022-08-17T11:41:24.760Z,29.16
2022-08-17T11:42:24.747Z,29.16
2022-08-17T11:43:25.375Z,29.10
2022-08-17T11:44:24.726Z,29.04
2022-08-17T11:45:32.509Z,29.01
2022-08-17T11:46:24.721Z,29.06
2022-08-17T11:47:24.703Z,29.19
2022-08-17T11:48:28.284Z,29.35
2022-08-17T11:49:24.716Z,29.45
2022-08-17T11:50:27.878Z,29.59
2022-08-17T11:51:24.691Z,29.68
2022-08-17T11:52:24.921Z,29.75
2022-08-17T11:53:24.656Z,29.79
2022-08-17T11:54:33.864Z,29.81
2022-08-17T11:55:35.494Z,29.82
2022-08-17T11:56:24.607Z,29.81
2022-08-17T11:57:24.592Z,29.78
2022-08-17T11:58:24.579Z,29.70
2022-08-17T11:59:24.575Z,29.57
2022-08-17T12:00:24.568Z,29.56
2022-08-17T12:01:24.601Z,29.44
2022-08-17T12:02:24.545Z,29.29
2022-08-17T12:03:24.634Z,29.15
2022-08-17T12:04:24.862Z,28.97
2022-08-17T12:05:24.550Z,28.82
2022-08-17T12:06:24.559Z,28.70
2022-08-17T12:07:24.572Z,28.60
2022-08-17T12:08:24.479Z,28.50
2022-08-17T12:09:24.491Z,28.43
2022-08-17T12:10:24.471Z,28.31
2022-08-17T12:11:55.159Z,28.23
2022-08-17T12:12:24.454Z,28.21
2022-08-17T12:13:30.496Z,28.19
2022-08-17T12:14:40.138Z,28.14
2022-08-17T12:15:24.438Z,28.10
2022-08-17T12:16:24.406Z,27.98
2022-08-17T12:17:41.070Z,27.91
2022-08-17T12:18:24.389Z,27.80
2022-08-17T12:19:24.419Z,27.71
2022-08-17T12:20:24.404Z,27.61
2022-08-17T12:21:24.339Z,27.58
2022-08-17T12:22:24.344Z,27.57
2022-08-17T12:23:24.342Z,27.51
2022-08-17T12:24:24.607Z,27.38
2022-08-17T12:25:24.358Z,27.17
2022-08-17T12:26:24.302Z,27.01
2022-08-17T12:27:52.992Z,26.91
2022-08-17T12:28:24.285Z,26.76
2022-08-17T12:29:35.411Z,26.61
2022-08-17T12:30:24.281Z,26.54
2022-08-17T12:31:24.573Z,26.54
2022-08-17T12:32:24.220Z,26.54
2022-08-17T12:33:25.368Z,26.58
2022-08-17T12:34:24.218Z,26.67
2022-08-17T12:35:24.217Z,26.76
2022-08-17T12:36:24.177Z,26.81
2022-08-17T12:37:24.218Z,26.95
2022-08-17T12:38:33.160Z,27.02
2022-08-17T12:39:24.862Z,27.14
2022-08-17T12:40:24.147Z,27.28
2022-08-17T12:41:24.131Z,27.33
2022-08-17T12:42:24.127Z,27.42
2022-08-17T12:43:24.150Z,27.54
2022-08-17T12:44:24.093Z,27.61
2022-08-17T12:45:24.383Z,27.61
2022-08-17T12:46:24.078Z,27.53
2022-08-17T12:47:24.067Z,27.32
2022-08-17T12:48:24.080Z,27.13
2022-08-17T12:49:24.367Z,26.98
2022-08-17T12:50:29.087Z,26.86
2022-08-17T12:51:24.044Z,26.80
2022-08-17T12:52:24.317Z,26.77